sensor_id;sensor_type;location;lat;lon;timestamp;P1;durP1;ratioP1;P2;durP2;ratioP2
3975;SDS011;2002;48.812;9.180;2022-10-31T00:00:21;1.20;;;1.10;;
3975;SDS011;2002;48.812;9.180;2022-10-31T00:02:47;1.90;;;1.30;;
3975;SDS011;2002;48.812;9.180;2022-10-31T00:05:12;1.43;;;1.33;;
3975;SDS011;2002;48.812;9.180;2022-10-31T00:07:38;2.07;;;1.37;;
3975;SDS011;2002;48.812;9.180;2022-10-31T00:10:03;1.20;;;1.10;;
3975;SDS011;2002;48.812;9.180;2022-10-31T00:12:30;1.63;;;1.33;;
3975;SDS011;2002;48.812;9.180;2022-10-31T00:14:55;1.37;;;1.27;;
3975;SDS011;2002;48.812;9.180;2022-10-31T00:17:21;1.50;;;1.20;;
3975;SDS011;2002;48.812;9.180;2022-10-31T00:19:46;2.70;;;1.70;;
3975;SDS011;2002;48.812;9.180;2022-10-31T00:22:12;1.60;;;1.40;;
3975;SDS011;2002;48.812;9.180;2022-10-31T00:24:37;1.43;;;1.33;;
3975;SDS011;2002;48.812;9.180;2022-10-31T00:27:03;1.43;;;1.33;;
3975;SDS011;2002;48.812;9.180;2022-10-31T00:29:28;1.67;;;1.57;;
3975;SDS011;2002;48.812;9.180;2022-10-31T00:31:54;1.43;;;1.27;;
3975;SDS011;2002;48.812;9.180;2022-10-31T00:34:19;1.80;;;1.53;;
3975;SDS011;2002;48.812;9.180;2022-10-31T00:36:45;1.70;;;1.57;;
3975;SDS011;2002;48.812;9.180;2022-10-31T00:39:10;1.97;;;1.80;;
3975;SDS011;2002;48.812;9.180;2022-10-31T00:41:36;1.63;;;1.53;;
3975;SDS011;2002;48.812;9.180;2022-10-31T00:44:01;1.40;;;1.20;;
3975;SDS011;2002;48.812;9.180;2022-10-31T00:46:27;1.47;;;1.37;;
3975;SDS011;2002;48.812;9.180;2022-10-31T00:48:52;1.33;;;1.23;;
3975;SDS011;2002;48.812;9.180;2022-10-31T00:51:18;1.93;;;1.30;;
3975;SDS011;2002;48.812;9.180;2022-10-31T00:53:43;1.53;;;1.43;;
3975;SDS011;2002;48.812;9.180;2022-10-31T00:56:09;1.40;;;1.30;;
3975;SDS011;2002;48.812;9.180;2022-10-31T00:58:35;1.47;;;1.37;;
3975;SDS011;2002;48.812;9.180;2022-10-31T01:01:00;1.40;;;1.30;;
3975;SDS011;2002;48.812;9.180;2022-10-31T01:03:27;1.60;;;1.50;;
3975;SDS011;2002;48.812;9.180;2022-10-31T01:05:58;1.77;;;1.67;;
3975;SDS011;2002;48.812;9.180;2022-10-31T01:08:25;1.57;;;1.30;;
3975;SDS011;2002;48.812;9.180;2022-10-31T01:11:14;1.53;;;1.43;;
3975;SDS011;2002;48.812;9.180;2022-10-31T01:13:45;1.50;;;1.30;;
3975;SDS011;2002;48.812;9.180;2022-10-31T01:16:12;1.40;;;1.30;;
3975;SDS011;2002;48.812;9.180;2022-10-31T01:18:40;1.30;;;1.20;;
3975;SDS011;2002;48.812;9.180;2022-10-31T01:21:07;1.73;;;1.63;;
3975;SDS011;2002;48.812;9.180;2022-10-31T01:23:33;1.40;;;1.30;;
3975;SDS011;2002;48.812;9.180;2022-10-31T01:26:01;1.50;;;1.40;;
3975;SDS011;2002;48.812;9.180;2022-10-31T01:28:27;1.00;;;1.00;;
3975;SDS011;2002;48.812;9.180;2022-10-31T01:30:53;1.57;;;1.47;;
3975;SDS011;2002;48.812;9.180;2022-10-31T01:33:19;1.60;;;1.23;;
3975;SDS011;2002;48.812;9.180;2022-10-31T01:35:45;1.53;;;1.13;;
3975;SDS011;2002;48.812;9.180;2022-10-31T01:38:10;1.23;;;1.13;;
3975;SDS011;2002;48.812;9.180;2022-10-31T01:40:36;1.20;;;1.10;;
3975;SDS011;2002;48.812;9.180;2022-10-31T01:43:01;1.60;;;1.50;;
3975;SDS011;2002;48.812;9.180;2022-10-31T01:45:27;2.60;;;1.43;;
3975;SDS011;2002;48.812;9.180;2022-10-31T01:47:52;1.60;;;1.50;;
3975;SDS011;2002;48.812;9.180;2022-10-31T01:50:22;1.57;;;1.47;;
3975;SDS011;2002;48.812;9.180;2022-10-31T01:52:52;1.60;;;1.40;;
3975;SDS011;2002;48.812;9.180;2022-10-31T01:55:38;1.53;;;1.43;;
3975;SDS011;2002;48.812;9.180;2022-10-31T01:58:10;1.23;;;1.13;;
3975;SDS011;2002;48.812;9.180;2022-10-31T02:00:39;1.77;;;1.40;;
3975;SDS011;2002;48.812;9.180;2022-10-31T02:03:10;1.47;;;1.37;;
3975;SDS011;2002;48.812;9.180;2022-10-31T02:05:36;1.23;;;1.13;;
3975;SDS011;2002;48.812;9.180;2022-10-31T02:10:53;1.43;;;1.30;;
3975;SDS011;2002;48.812;9.180;2022-10-31T02:13:20;1.50;;;1.40;;
3975;SDS011;2002;48.812;9.180;2022-10-31T02:15:49;1.90;;;1.80;;
3975;SDS011;2002;48.812;9.180;2022-10-31T02:18:17;1.40;;;1.30;;
3975;SDS011;2002;48.812;9.180;2022-10-31T02:31:42;1.60;;;1.50;;
3975;SDS011;2002;48.812;9.180;2022-10-31T02:34:34;2.27;;;1.30;;
3975;SDS011;2002;48.812;9.180;2022-10-31T02:37:15;1.63;;;1.53;;
3975;SDS011;2002;48.812;9.180;2022-10-31T02:40:10;1.50;;;1.40;;
3975;SDS011;2002;48.812;9.180;2022-10-31T02:42:39;1.50;;;1.40;;
3975;SDS011;2002;48.812;9.180;2022-10-31T02:45:12;1.40;;;1.30;;
3975;SDS011;2002;48.812;9.180;2022-10-31T02:47:52;1.60;;;1.40;;
3975;SDS011;2002;48.812;9.180;2022-10-31T02:50:28;1.30;;;1.20;;
3975;SDS011;2002;48.812;9.180;2022-10-31T02:52:57;1.30;;;1.20;;
3975;SDS011;2002;48.812;9.180;2022-10-31T02:57:52;1.57;;;1.47;;
3975;SDS011;2002;48.812;9.180;2022-10-31T03:00:46;1.97;;;1.50;;
3975;SDS011;2002;48.812;9.180;2022-10-31T03:06:43;1.47;;;1.37;;
3975;SDS011;2002;48.812;9.180;2022-10-31T03:09:26;1.77;;;1.67;;
3975;SDS011;2002;48.812;9.180;2022-10-31T03:15:10;2.03;;;1.83;;
3975;SDS011;2002;48.812;9.180;2022-10-31T03:17:30;1.50;;;1.40;;
3975;SDS011;2002;48.812;9.180;2022-10-31T03:20:06;1.63;;;1.53;;
3975;SDS011;2002;48.812;9.180;2022-10-31T03:22:35;2.07;;;1.87;;
3975;SDS011;2002;48.812;9.180;2022-10-31T03:25:04;1.70;;;1.60;;
3975;SDS011;2002;48.812;9.180;2022-10-31T03:27:32;1.50;;;1.40;;
3975;SDS011;2002;48.812;9.180;2022-10-31T03:30:01;1.50;;;1.40;;
3975;SDS011;2002;48.812;9.180;2022-10-31T03:32:33;1.33;;;1.23;;
3975;SDS011;2002;48.812;9.180;2022-10-31T03:35:03;1.57;;;1.30;;
3975;SDS011;2002;48.812;9.180;2022-10-31T03:37:32;1.77;;;1.60;;
3975;SDS011;2002;48.812;9.180;2022-10-31T03:40:00;1.40;;;1.30;;
3975;SDS011;2002;48.812;9.180;2022-10-31T03:42:30;1.43;;;1.33;;
3975;SDS011;2002;48.812;9.180;2022-10-31T03:45:10;2.10;;;1.80;;
3975;SDS011;2002;48.812;9.180;2022-10-31T03:47:38;1.40;;;1.30;;
3975;SDS011;2002;48.812;9.180;2022-10-31T03:50:05;1.70;;;1.60;;
3975;SDS011;2002;48.812;9.180;2022-10-31T03:55:09;2.37;;;2.17;;
3975;SDS011;2002;48.812;9.180;2022-10-31T04:00:24;1.40;;;1.30;;
3975;SDS011;2002;48.812;9.180;2022-10-31T04:02:55;1.40;;;1.30;;
3975;SDS011;2002;48.812;9.180;2022-10-31T04:05:25;1.63;;;1.53;;
3975;SDS011;2002;48.812;9.180;2022-10-31T04:07:53;1.70;;;1.53;;
3975;SDS011;2002;48.812;9.180;2022-10-31T04:10:21;1.50;;;1.40;;
3975;SDS011;2002;48.812;9.180;2022-10-31T04:12:50;1.40;;;1.30;;
3975;SDS011;2002;48.812;9.180;2022-10-31T04:15:22;1.90;;;1.80;;
3975;SDS011;2002;48.812;9.180;2022-10-31T04:17:50;1.50;;;1.40;;
3975;SDS011;2002;48.812;9.180;2022-10-31T04:20:28;1.50;;;1.40;;
3975;SDS011;2002;48.812;9.180;2022-10-31T04:22:55;1.60;;;1.50;;
3975;SDS011;2002;48.812;9.180;2022-10-31T04:25:21;1.87;;;1.50;;
3975;SDS011;2002;48.812;9.180;2022-10-31T04:27:46;1.47;;;1.33;;
3975;SDS011;2002;48.812;9.180;2022-10-31T04:30:12;1.47;;;1.33;;
3975;SDS011;2002;48.812;9.180;2022-10-31T04:32:38;1.87;;;1.67;;
3975;SDS011;2002;48.812;9.180;2022-10-31T04:35:03;1.63;;;1.53;;
3975;SDS011;2002;48.812;9.180;2022-10-31T04:37:29;1.40;;;1.20;;
3975;SDS011;2002;48.812;9.180;2022-10-31T04:39:54;1.80;;;1.37;;
3975;SDS011;2002;48.812;9.180;2022-10-31T04:42:20;2.60;;;1.67;;
3975;SDS011;2002;48.812;9.180;2022-10-31T04:44:46;1.77;;;1.53;;
3975;SDS011;2002;48.812;9.180;2022-10-31T04:47:11;1.63;;;1.53;;
3975;SDS011;2002;48.812;9.180;2022-10-31T04:49:37;1.50;;;1.40;;
3975;SDS011;2002;48.812;9.180;2022-10-31T04:52:02;1.60;;;1.50;;
3975;SDS011;2002;48.812;9.180;2022-10-31T04:54:28;1.53;;;1.43;;
3975;SDS011;2002;48.812;9.180;2022-10-31T04:56:53;1.50;;;1.40;;
3975;SDS011;2002;48.812;9.180;2022-10-31T04:59:19;1.60;;;1.50;;
3975;SDS011;2002;48.812;9.180;2022-10-31T05:01:44;1.50;;;1.40;;
3975;SDS011;2002;48.812;9.180;2022-10-31T05:04:10;1.20;;;1.10;;
3975;SDS011;2002;48.812;9.180;2022-10-31T05:06:35;1.60;;;1.50;;
3975;SDS011;2002;48.812;9.180;2022-10-31T05:09:01;1.50;;;1.40;;
3975;SDS011;2002;48.812;9.180;2022-10-31T05:11:27;1.80;;;1.70;;
3975;SDS011;2002;48.812;9.180;2022-10-31T05:13:52;2.00;;;1.80;;
3975;SDS011;2002;48.812;9.180;2022-10-31T05:16:18;2.67;;;1.83;;
3975;SDS011;2002;48.812;9.180;2022-10-31T05:18:43;1.30;;;1.10;;
3975;SDS011;2002;48.812;9.180;2022-10-31T05:21:09;2.40;;;1.40;;
3975;SDS011;2002;48.812;9.180;2022-10-31T05:23:34;1.47;;;1.30;;
3975;SDS011;2002;48.812;9.180;2022-10-31T05:26:00;1.47;;;1.37;;
3975;SDS011;2002;48.812;9.180;2022-10-31T05:28:25;1.77;;;1.67;;
3975;SDS011;2002;48.812;9.180;2022-10-31T05:30:51;1.43;;;1.33;;
3975;SDS011;2002;48.812;9.180;2022-10-31T05:33:16;2.57;;;1.80;;
3975;SDS011;2002;48.812;9.180;2022-10-31T05:35:42;1.43;;;1.33;;
3975;SDS011;2002;48.812;9.180;2022-10-31T05:38:07;1.50;;;1.33;;
3975;SDS011;2002;48.812;9.180;2022-10-31T05:40:33;2.00;;;1.60;;
3975;SDS011;2002;48.812;9.180;2022-10-31T05:42:58;1.60;;;1.43;;
3975;SDS011;2002;48.812;9.180;2022-10-31T05:45:24;1.70;;;1.50;;
3975;SDS011;2002;48.812;9.180;2022-10-31T05:47:53;1.87;;;1.70;;
3975;SDS011;2002;48.812;9.180;2022-10-31T05:50:20;1.93;;;1.43;;
3975;SDS011;2002;48.812;9.180;2022-10-31T05:52:46;1.70;;;1.60;;
3975;SDS011;2002;48.812;9.180;2022-10-31T05:55:12;1.53;;;1.30;;
3975;SDS011;2002;48.812;9.180;2022-10-31T05:57:38;2.00;;;1.30;;
3975;SDS011;2002;48.812;9.180;2022-10-31T06:00:04;1.70;;;1.40;;
3975;SDS011;2002;48.812;9.180;2022-10-31T06:02:30;1.40;;;1.30;;
3975;SDS011;2002;48.812;9.180;2022-10-31T06:04:59;1.30;;;1.20;;
3975;SDS011;2002;48.812;9.180;2022-10-31T06:07:25;1.47;;;1.37;;
3975;SDS011;2002;48.812;9.180;2022-10-31T06:09:51;1.43;;;1.33;;
3975;SDS011;2002;48.812;9.180;2022-10-31T06:12:16;1.90;;;1.70;;
3975;SDS011;2002;48.812;9.180;2022-10-31T06:14:42;1.60;;;1.50;;
3975;SDS011;2002;48.812;9.180;2022-10-31T06:17:07;3.80;;;1.73;;
3975;SDS011;2002;48.812;9.180;2022-10-31T06:19:33;1.40;;;1.30;;
3975;SDS011;2002;48.812;9.180;2022-10-31T06:21:58;2.70;;;2.03;;
3975;SDS011;2002;48.812;9.180;2022-10-31T06:24:24;1.60;;;1.50;;
3975;SDS011;2002;48.812;9.180;2022-10-31T06:26:49;1.40;;;1.30;;
3975;SDS011;2002;48.812;9.180;2022-10-31T06:29:15;2.30;;;2.10;;
3975;SDS011;2002;48.812;9.180;2022-10-31T06:31:40;1.60;;;1.50;;
3975;SDS011;2002;48.812;9.180;2022-10-31T06:34:06;1.97;;;1.80;;
3975;SDS011;2002;48.812;9.180;2022-10-31T06:36:31;2.60;;;1.90;;
3975;SDS011;2002;48.812;9.180;2022-10-31T06:38:57;1.53;;;1.33;;
3975;SDS011;2002;48.812;9.180;2022-10-31T06:41:22;1.50;;;1.40;;
3975;SDS011;2002;48.812;9.180;2022-10-31T06:43:48;1.63;;;1.53;;
3975;SDS011;2002;48.812;9.180;2022-10-31T06:46:13;1.53;;;1.43;;
3975;SDS011;2002;48.812;9.180;2022-10-31T06:48:42;1.50;;;1.40;;
3975;SDS011;2002;48.812;9.180;2022-10-31T06:51:07;2.20;;;1.70;;
3975;SDS011;2002;48.812;9.180;2022-10-31T06:53:33;1.43;;;1.33;;
3975;SDS011;2002;48.812;9.180;2022-10-31T06:55:59;1.40;;;1.30;;
3975;SDS011;2002;48.812;9.180;2022-10-31T06:58:24;2.17;;;1.70;;
3975;SDS011;2002;48.812;9.180;2022-10-31T07:00:50;3.20;;;1.70;;
3975;SDS011;2002;48.812;9.180;2022-10-31T07:03:17;1.87;;;1.67;;
3975;SDS011;2002;48.812;9.180;2022-10-31T07:05:42;1.27;;;1.17;;
3975;SDS011;2002;48.812;9.180;2022-10-31T07:08:13;1.43;;;1.33;;
3975;SDS011;2002;48.812;9.180;2022-10-31T07:10:40;1.30;;;1.20;;
3975;SDS011;2002;48.812;9.180;2022-10-31T07:13:08;1.40;;;1.30;;
3975;SDS011;2002;48.812;9.180;2022-10-31T07:15:37;1.97;;;1.60;;
3975;SDS011;2002;48.812;9.180;2022-10-31T07:18:04;1.50;;;1.40;;
3975;SDS011;2002;48.812;9.180;2022-10-31T07:20:31;1.37;;;1.10;;
3975;SDS011;2002;48.812;9.180;2022-10-31T07:22:57;2.10;;;1.90;;
3975;SDS011;2002;48.812;9.180;2022-10-31T07:25:23;1.73;;;1.63;;
3975;SDS011;2002;48.812;9.180;2022-10-31T07:27:49;2.07;;;1.43;;
3975;SDS011;2002;48.812;9.180;2022-10-31T07:30:15;1.70;;;1.60;;
3975;SDS011;2002;48.812;9.180;2022-10-31T07:32:44;1.93;;;1.67;;
3975;SDS011;2002;48.812;9.180;2022-10-31T07:35:12;1.53;;;1.43;;
3975;SDS011;2002;48.812;9.180;2022-10-31T07:37:45;1.80;;;1.50;;
3975;SDS011;2002;48.812;9.180;2022-10-31T07:40:11;2.53;;;1.47;;
3975;SDS011;2002;48.812;9.180;2022-10-31T07:42:41;2.30;;;1.47;;
3975;SDS011;2002;48.812;9.180;2022-10-31T07:45:09;1.67;;;1.47;;
3975;SDS011;2002;48.812;9.180;2022-10-31T07:50:06;2.50;;;1.70;;
3975;SDS011;2002;48.812;9.180;2022-10-31T07:52:32;1.93;;;1.73;;
3975;SDS011;2002;48.812;9.180;2022-10-31T07:54:58;2.13;;;1.93;;
3975;SDS011;2002;48.812;9.180;2022-10-31T07:57:23;1.47;;;1.30;;
3975;SDS011;2002;48.812;9.180;2022-10-31T07:59:49;1.40;;;1.30;;
3975;SDS011;2002;48.812;9.180;2022-10-31T08:02:14;1.70;;;1.60;;
3975;SDS011;2002;48.812;9.180;2022-10-31T08:04:40;1.53;;;1.43;;
3975;SDS011;2002;48.812;9.180;2022-10-31T08:07:05;1.50;;;1.33;;
3975;SDS011;2002;48.812;9.180;2022-10-31T08:09:31;1.70;;;1.60;;
3975;SDS011;2002;48.812;9.180;2022-10-31T08:11:56;2.00;;;1.90;;
3975;SDS011;2002;48.812;9.180;2022-10-31T08:14:22;1.80;;;1.50;;
3975;SDS011;2002;48.812;9.180;2022-10-31T08:16:47;1.83;;;1.70;;
3975;SDS011;2002;48.812;9.180;2022-10-31T08:19:13;1.50;;;1.40;;
3975;SDS011;2002;48.812;9.180;2022-10-31T08:21:39;1.77;;;1.40;;
3975;SDS011;2002;48.812;9.180;2022-10-31T08:24:04;1.83;;;1.73;;
3975;SDS011;2002;48.812;9.180;2022-10-31T08:26:30;3.53;;;1.70;;
3975;SDS011;2002;48.812;9.180;2022-10-31T08:28:56;2.03;;;1.40;;
3975;SDS011;2002;48.812;9.180;2022-10-31T08:31:22;1.70;;;1.60;;
3975;SDS011;2002;48.812;9.180;2022-10-31T08:33:48;1.47;;;1.37;;
3975;SDS011;2002;48.812;9.180;2022-10-31T08:36:14;3.03;;;1.30;;
3975;SDS011;2002;48.812;9.180;2022-10-31T08:38:39;1.50;;;1.20;;
3975;SDS011;2002;48.812;9.180;2022-10-31T08:41:05;2.20;;;1.60;;
3975;SDS011;2002;48.812;9.180;2022-10-31T08:43:30;1.90;;;1.70;;
3975;SDS011;2002;48.812;9.180;2022-10-31T08:45:56;2.60;;;1.87;;
3975;SDS011;2002;48.812;9.180;2022-10-31T08:48:22;1.90;;;1.80;;
3975;SDS011;2002;48.812;9.180;2022-10-31T08:50:47;1.90;;;1.60;;
3975;SDS011;2002;48.812;9.180;2022-10-31T08:53:14;1.70;;;1.60;;
3975;SDS011;2002;48.812;9.180;2022-10-31T08:55:42;1.97;;;1.77;;
3975;SDS011;2002;48.812;9.180;2022-10-31T08:58:12;1.87;;;1.77;;
3975;SDS011;2002;48.812;9.180;2022-10-31T09:00:39;2.00;;;1.90;;
3975;SDS011;2002;48.812;9.180;2022-10-31T09:03:09;1.93;;;1.77;;
3975;SDS011;2002;48.812;9.180;2022-10-31T09:05:37;1.83;;;1.60;;
3975;SDS011;2002;48.812;9.180;2022-10-31T09:08:03;1.87;;;1.77;;
3975;SDS011;2002;48.812;9.180;2022-10-31T09:10:30;1.80;;;1.70;;
3975;SDS011;2002;48.812;9.180;2022-10-31T09:13:01;1.70;;;1.60;;
3975;SDS011;2002;48.812;9.180;2022-10-31T09:15:31;2.37;;;1.90;;
3975;SDS011;2002;48.812;9.180;2022-10-31T09:17:58;1.57;;;1.47;;
3975;SDS011;2002;48.812;9.180;2022-10-31T09:20:23;1.97;;;1.70;;
3975;SDS011;2002;48.812;9.180;2022-10-31T09:22:56;2.37;;;1.50;;
3975;SDS011;2002;48.812;9.180;2022-10-31T09:25:23;3.27;;;1.83;;
3975;SDS011;2002;48.812;9.180;2022-10-31T09:27:48;1.77;;;1.60;;
3975;SDS011;2002;48.812;9.180;2022-10-31T09:30:14;2.00;;;1.90;;
3975;SDS011;2002;48.812;9.180;2022-10-31T09:32:39;2.07;;;1.90;;
3975;SDS011;2002;48.812;9.180;2022-10-31T09:35:05;2.17;;;1.97;;
3975;SDS011;2002;48.812;9.180;2022-10-31T09:37:31;2.23;;;1.73;;
3975;SDS011;2002;48.812;9.180;2022-10-31T09:39:57;1.70;;;1.60;;
3975;SDS011;2002;48.812;9.180;2022-10-31T09:47:59;1.87;;;1.77;;
3975;SDS011;2002;48.812;9.180;2022-10-31T09:50:47;2.53;;;1.80;;
3975;SDS011;2002;48.812;9.180;2022-10-31T09:53:38;2.03;;;1.87;;
3975;SDS011;2002;48.812;9.180;2022-10-31T09:56:09;1.80;;;1.70;;
3975;SDS011;2002;48.812;9.180;2022-10-31T09:58:40;1.70;;;1.60;;
3975;SDS011;2002;48.812;9.180;2022-10-31T10:03:50;1.70;;;1.60;;
3975;SDS011;2002;48.812;9.180;2022-10-31T10:06:23;1.93;;;1.80;;
3975;SDS011;2002;48.812;9.180;2022-10-31T10:08:52;1.73;;;1.63;;
3975;SDS011;2002;48.812;9.180;2022-10-31T10:22:01;2.00;;;1.80;;
3975;SDS011;2002;48.812;9.180;2022-10-31T10:30:13;3.23;;;1.60;;
3975;SDS011;2002;48.812;9.180;2022-10-31T10:33:04;2.00;;;1.90;;
3975;SDS011;2002;48.812;9.180;2022-10-31T10:35:31;2.20;;;2.00;;
3975;SDS011;2002;48.812;9.180;2022-10-31T10:38:01;2.03;;;1.80;;
3975;SDS011;2002;48.812;9.180;2022-10-31T10:40:35;1.90;;;1.70;;
3975;SDS011;2002;48.812;9.180;2022-10-31T10:45:44;1.90;;;1.70;;
3975;SDS011;2002;48.812;9.180;2022-10-31T10:48:39;1.63;;;1.53;;
3975;SDS011;2002;48.812;9.180;2022-10-31T10:51:20;3.70;;;1.80;;
3975;SDS011;2002;48.812;9.180;2022-10-31T10:54:02;2.20;;;2.00;;
3975;SDS011;2002;48.812;9.180;2022-10-31T10:56:48;4.43;;;1.73;;
3975;SDS011;2002;48.812;9.180;2022-10-31T10:59:23;2.00;;;1.87;;
3975;SDS011;2002;48.812;9.180;2022-10-31T11:01:50;2.03;;;1.83;;
3975;SDS011;2002;48.812;9.180;2022-10-31T11:04:33;2.67;;;2.40;;
3975;SDS011;2002;48.812;9.180;2022-10-31T11:07:01;1.90;;;1.80;;
3975;SDS011;2002;48.812;9.180;2022-10-31T11:09:31;2.27;;;2.13;;
3975;SDS011;2002;48.812;9.180;2022-10-31T11:11:58;2.20;;;2.00;;
3975;SDS011;2002;48.812;9.180;2022-10-31T11:14:24;1.87;;;1.67;;
3975;SDS011;2002;48.812;9.180;2022-10-31T11:16:54;1.87;;;1.60;;
3975;SDS011;2002;48.812;9.180;2022-10-31T11:19:33;1.53;;;1.43;;
3975;SDS011;2002;48.812;9.180;2022-10-31T11:22:05;2.27;;;1.70;;
3975;SDS011;2002;48.812;9.180;2022-10-31T11:24:35;1.90;;;1.80;;
3975;SDS011;2002;48.812;9.180;2022-10-31T11:27:16;1.83;;;1.73;;
3975;SDS011;2002;48.812;9.180;2022-10-31T11:29:45;2.20;;;1.70;;
3975;SDS011;2002;48.812;9.180;2022-10-31T11:32:21;2.00;;;1.80;;
3975;SDS011;2002;48.812;9.180;2022-10-31T11:34:52;3.43;;;2.17;;
3975;SDS011;2002;48.812;9.180;2022-10-31T11:37:23;1.47;;;1.37;;
3975;SDS011;2002;48.812;9.180;2022-10-31T11:39:52;1.87;;;1.50;;
3975;SDS011;2002;48.812;9.180;2022-10-31T11:42:24;2.13;;;1.80;;
3975;SDS011;2002;48.812;9.180;2022-10-31T11:44:52;2.30;;;1.77;;
3975;SDS011;2002;48.812;9.180;2022-10-31T11:47:27;1.87;;;1.60;;
3975;SDS011;2002;48.812;9.180;2022-10-31T11:49:54;1.70;;;1.60;;
3975;SDS011;2002;48.812;9.180;2022-10-31T11:52:23;2.07;;;1.97;;
3975;SDS011;2002;48.812;9.180;2022-10-31T11:54:55;3.13;;;2.20;;
3975;SDS011;2002;48.812;9.180;2022-10-31T11:57:25;2.33;;;1.80;;
3975;SDS011;2002;48.812;9.180;2022-10-31T12:00:19;2.20;;;1.93;;
3975;SDS011;2002;48.812;9.180;2022-10-31T12:02:46;1.80;;;1.70;;
3975;SDS011;2002;48.812;9.180;2022-10-31T12:07:47;2.57;;;1.83;;
3975;SDS011;2002;48.812;9.180;2022-10-31T12:10:14;2.23;;;2.00;;
3975;SDS011;2002;48.812;9.180;2022-10-31T12:13:03;2.77;;;2.40;;
3975;SDS011;2002;48.812;9.180;2022-10-31T12:15:50;1.97;;;1.87;;
3975;SDS011;2002;48.812;9.180;2022-10-31T12:18:37;2.40;;;2.20;;
3975;SDS011;2002;48.812;9.180;2022-10-31T12:23:56;2.10;;;2.00;;
3975;SDS011;2002;48.812;9.180;2022-10-31T12:26:32;2.50;;;1.97;;
3975;SDS011;2002;48.812;9.180;2022-10-31T12:37:25;2.07;;;1.97;;
3975;SDS011;2002;48.812;9.180;2022-10-31T12:40:06;1.67;;;1.57;;
3975;SDS011;2002;48.812;9.180;2022-10-31T12:45:55;2.00;;;1.90;;
3975;SDS011;2002;48.812;9.180;2022-10-31T13:00:04;2.13;;;1.93;;
3975;SDS011;2002;48.812;9.180;2022-10-31T13:03:19;2.50;;;2.07;;
3975;SDS011;2002;48.812;9.180;2022-10-31T13:05:34;2.50;;;1.80;;
3975;SDS011;2002;48.812;9.180;2022-10-31T13:08:05;2.53;;;2.33;;
3975;SDS011;2002;48.812;9.180;2022-10-31T13:10:42;1.90;;;1.70;;
3975;SDS011;2002;48.812;9.180;2022-10-31T13:13:27;1.97;;;1.87;;
3975;SDS011;2002;48.812;9.180;2022-10-31T13:16:28;3.83;;;2.10;;
3975;SDS011;2002;48.812;9.180;2022-10-31T13:19:14;3.63;;;2.00;;
3975;SDS011;2002;48.812;9.180;2022-10-31T13:21:44;2.30;;;2.10;;
3975;SDS011;2002;48.812;9.180;2022-10-31T13:24:16;2.27;;;2.07;;
3975;SDS011;2002;48.812;9.180;2022-10-31T13:26:53;2.23;;;1.90;;
3975;SDS011;2002;48.812;9.180;2022-10-31T13:32:14;3.27;;;2.20;;
3975;SDS011;2002;48.812;9.180;2022-10-31T13:34:42;2.47;;;1.80;;
3975;SDS011;2002;48.812;9.180;2022-10-31T13:45:17;1.80;;;1.60;;
3975;SDS011;2002;48.812;9.180;2022-10-31T13:47:54;1.70;;;1.60;;
3975;SDS011;2002;48.812;9.180;2022-10-31T13:50:54;2.67;;;2.47;;
3975;SDS011;2002;48.812;9.180;2022-10-31T13:53:35;2.20;;;2.00;;
3975;SDS011;2002;48.812;9.180;2022-10-31T13:56:22;2.30;;;1.87;;
3975;SDS011;2002;48.812;9.180;2022-10-31T14:01:24;1.93;;;1.80;;
3975;SDS011;2002;48.812;9.180;2022-10-31T14:09:32;1.80;;;1.60;;
3975;SDS011;2002;48.812;9.180;2022-10-31T14:15:03;2.10;;;1.90;;
3975;SDS011;2002;48.812;9.180;2022-10-31T14:17:40;2.33;;;1.90;;
3975;SDS011;2002;48.812;9.180;2022-10-31T15:23:27;5.17;;;2.30;;
3975;SDS011;2002;48.812;9.180;2022-10-31T15:25:58;5.37;;;2.20;;
3975;SDS011;2002;48.812;9.180;2022-10-31T15:28:25;3.30;;;2.50;;
3975;SDS011;2002;48.812;9.180;2022-10-31T15:30:51;1.97;;;1.70;;
3975;SDS011;2002;48.812;9.180;2022-10-31T15:33:19;2.00;;;1.70;;
3975;SDS011;2002;48.812;9.180;2022-10-31T15:35:58;3.20;;;2.50;;
3975;SDS011;2002;48.812;9.180;2022-10-31T15:38:26;3.80;;;2.10;;
3975;SDS011;2002;48.812;9.180;2022-10-31T15:43:47;2.33;;;2.13;;
3975;SDS011;2002;48.812;9.180;2022-10-31T15:46:13;2.70;;;2.33;;
3975;SDS011;2002;48.812;9.180;2022-10-31T15:48:39;2.80;;;2.50;;
3975;SDS011;2002;48.812;9.180;2022-10-31T15:51:11;2.20;;;1.83;;
3975;SDS011;2002;48.812;9.180;2022-10-31T15:53:45;2.90;;;1.63;;
3975;SDS011;2002;48.812;9.180;2022-10-31T15:56:19;3.40;;;1.77;;
3975;SDS011;2002;48.812;9.180;2022-10-31T15:58:52;2.70;;;1.80;;
3975;SDS011;2002;48.812;9.180;2022-10-31T16:01:20;4.60;;;2.33;;
3975;SDS011;2002;48.812;9.180;2022-10-31T16:22:37;3.53;;;2.03;;
3975;SDS011;2002;48.812;9.180;2022-10-31T16:25:04;3.03;;;2.70;;
3975;SDS011;2002;48.812;9.180;2022-10-31T16:27:39;2.97;;;2.10;;
3975;SDS011;2002;48.812;9.180;2022-10-31T16:33:04;2.40;;;2.20;;
3975;SDS011;2002;48.812;9.180;2022-10-31T16:35:50;2.00;;;1.80;;
3975;SDS011;2002;48.812;9.180;2022-10-31T16:38:16;2.00;;;1.90;;
3975;SDS011;2002;48.812;9.180;2022-10-31T16:40:41;2.60;;;1.93;;
3975;SDS011;2002;48.812;9.180;2022-10-31T16:43:09;3.00;;;2.10;;
3975;SDS011;2002;48.812;9.180;2022-10-31T16:45:37;2.53;;;2.10;;
3975;SDS011;2002;48.812;9.180;2022-10-31T16:48:15;3.13;;;2.00;;
3975;SDS011;2002;48.812;9.180;2022-10-31T16:50:44;2.67;;;2.20;;
3975;SDS011;2002;48.812;9.180;2022-10-31T16:53:11;2.53;;;2.33;;
3975;SDS011;2002;48.812;9.180;2022-10-31T16:55:44;2.00;;;1.90;;
3975;SDS011;2002;48.812;9.180;2022-10-31T16:58:24;3.20;;;1.70;;
3975;SDS011;2002;48.812;9.180;2022-10-31T17:00:53;3.30;;;2.00;;
3975;SDS011;2002;48.812;9.180;2022-10-31T17:03:19;2.60;;;2.13;;
3975;SDS011;2002;48.812;9.180;2022-10-31T17:05:45;2.40;;;2.20;;
3975;SDS011;2002;48.812;9.180;2022-10-31T17:08:11;2.40;;;2.20;;
3975;SDS011;2002;48.812;9.180;2022-10-31T17:10:37;2.67;;;2.27;;
3975;SDS011;2002;48.812;9.180;2022-10-31T17:13:04;1.97;;;1.77;;
3975;SDS011;2002;48.812;9.180;2022-10-31T17:15:35;4.10;;;2.07;;
3975;SDS011;2002;48.812;9.180;2022-10-31T17:18:04;2.40;;;2.00;;
3975;SDS011;2002;48.812;9.180;2022-10-31T17:20:30;2.03;;;1.83;;
3975;SDS011;2002;48.812;9.180;2022-10-31T17:22:56;2.53;;;2.33;;
3975;SDS011;2002;48.812;9.180;2022-10-31T17:25:24;4.47;;;1.70;;
3975;SDS011;2002;48.812;9.180;2022-10-31T17:27:51;2.67;;;2.10;;
3975;SDS011;2002;48.812;9.180;2022-10-31T17:30:17;2.63;;;2.30;;
3975;SDS011;2002;48.812;9.180;2022-10-31T17:32:45;2.60;;;2.07;;
3975;SDS011;2002;48.812;9.180;2022-10-31T17:35:12;2.50;;;2.00;;
3975;SDS011;2002;48.812;9.180;2022-10-31T17:37:38;2.90;;;2.00;;
3975;SDS011;2002;48.812;9.180;2022-10-31T17:40:06;2.00;;;1.90;;
3975;SDS011;2002;48.812;9.180;2022-10-31T17:42:33;2.10;;;1.90;;
3975;SDS011;2002;48.812;9.180;2022-10-31T17:44:58;2.20;;;2.03;;
3975;SDS011;2002;48.812;9.180;2022-10-31T17:47:24;2.07;;;1.87;;
3975;SDS011;2002;48.812;9.180;2022-10-31T17:49:50;2.07;;;1.87;;
3975;SDS011;2002;48.812;9.180;2022-10-31T17:52:17;2.07;;;1.83;;
3975;SDS011;2002;48.812;9.180;2022-10-31T17:54:43;1.80;;;1.67;;
3975;SDS011;2002;48.812;9.180;2022-10-31T17:57:09;2.20;;;2.00;;
3975;SDS011;2002;48.812;9.180;2022-10-31T17:59:34;2.53;;;1.73;;
3975;SDS011;2002;48.812;9.180;2022-10-31T18:02:00;1.90;;;1.80;;
3975;SDS011;2002;48.812;9.180;2022-10-31T18:04:26;2.40;;;2.13;;
3975;SDS011;2002;48.812;9.180;2022-10-31T18:06:52;2.80;;;2.60;;
3975;SDS011;2002;48.812;9.180;2022-10-31T18:09:18;2.07;;;1.93;;
3975;SDS011;2002;48.812;9.180;2022-10-31T18:11:44;2.30;;;2.10;;
3975;SDS011;2002;48.812;9.180;2022-10-31T18:14:10;2.40;;;1.97;;
3975;SDS011;2002;48.812;9.180;2022-10-31T18:16:35;2.07;;;1.97;;
3975;SDS011;2002;48.812;9.180;2022-10-31T18:19:01;2.80;;;2.13;;
3975;SDS011;2002;48.812;9.180;2022-10-31T18:21:28;2.10;;;1.90;;
3975;SDS011;2002;48.812;9.180;2022-10-31T18:23:54;2.27;;;2.00;;
3975;SDS011;2002;48.812;9.180;2022-10-31T18:26:21;2.23;;;1.87;;
3975;SDS011;2002;48.812;9.180;2022-10-31T18:28:47;2.63;;;1.90;;
3975;SDS011;2002;48.812;9.180;2022-10-31T18:31:13;2.10;;;1.60;;
3975;SDS011;2002;48.812;9.180;2022-10-31T18:33:38;2.20;;;1.70;;
3975;SDS011;2002;48.812;9.180;2022-10-31T18:36:06;2.23;;;1.93;;
3975;SDS011;2002;48.812;9.180;2022-10-31T18:38:33;1.77;;;1.67;;
3975;SDS011;2002;48.812;9.180;2022-10-31T18:41:01;2.20;;;1.97;;
3975;SDS011;2002;48.812;9.180;2022-10-31T18:43:27;2.30;;;2.03;;